sensor_id;sensor_type;location;lat;lon;timestamp;P1;durP1;ratioP1;P2;durP2;ratioP2
8757;SDS011;4415;42.152;24.744;2023-08-12T00:00:37;2.83;;;2.73;;
8757;SDS011;4415;42.152;24.744;2023-08-12T00:03:03;2.50;;;2.40;;
8757;SDS011;4415;42.152;24.744;2023-08-12T00:05:28;2.97;;;2.77;;
8757;SDS011;4415;42.152;24.744;2023-08-12T00:07:55;2.50;;;2.37;;
8757;SDS011;4415;42.152;24.744;2023-08-12T00:10:20;3.00;;;2.70;;
8757;SDS011;4415;42.152;24.744;2023-08-12T00:12:45;3.13;;;2.90;;
8757;SDS011;4415;42.152;24.744;2023-08-12T00:15:11;2.67;;;2.57;;
8757;SDS011;4415;42.152;24.744;2023-08-12T00:17:37;2.75;;;2.65;;
8757;SDS011;4415;42.152;24.744;2023-08-12T00:20:05;2.93;;;2.73;;
8757;SDS011;4415;42.152;24.744;2023-08-12T00:22:32;2.80;;;2.67;;
8757;SDS011;4415;42.152;24.744;2023-08-12T00:24:58;3.10;;;2.90;;
8757;SDS011;4415;42.152;24.744;2023-08-12T00:27:23;2.97;;;2.70;;
8757;SDS011;4415;42.152;24.744;2023-08-12T00:29:48;2.40;;;2.30;;
8757;SDS011;4415;42.152;24.744;2023-08-12T00:32:14;2.97;;;2.77;;
8757;SDS011;4415;42.152;24.744;2023-08-12T00:34:39;3.20;;;3.00;;
8757;SDS011;4415;42.152;24.744;2023-08-12T00:37:04;3.33;;;2.50;;
8757;SDS011;4415;42.152;24.744;2023-08-12T00:39:30;2.55;;;2.45;;
8757;SDS011;4415;42.152;24.744;2023-08-12T00:41:55;3.10;;;2.80;;
8757;SDS011;4415;42.152;24.744;2023-08-12T00:44:20;3.23;;;2.80;;
8757;SDS011;4415;42.152;24.744;2023-08-12T00:46:45;3.20;;;2.93;;
8757;SDS011;4415;42.152;24.744;2023-08-12T00:49:11;3.30;;;3.03;;
8757;SDS011;4415;42.152;24.744;2023-08-12T00:51:39;2.50;;;2.40;;
8757;SDS011;4415;42.152;24.744;2023-08-12T00:54:06;3.10;;;2.90;;
8757;SDS011;4415;42.152;24.744;2023-08-12T00:56:33;3.43;;;2.70;;
8757;SDS011;4415;42.152;24.744;2023-08-12T00:58:59;3.00;;;2.60;;
8757;SDS011;4415;42.152;24.744;2023-08-12T01:01:26;3.03;;;2.53;;
8757;SDS011;4415;42.152;24.744;2023-08-12T01:03:52;3.03;;;2.73;;
8757;SDS011;4415;42.152;24.744;2023-08-12T01:06:17;2.87;;;2.73;;
8757;SDS011;4415;42.152;24.744;2023-08-12T01:08:43;7.27;;;3.10;;
8757;SDS011;4415;42.152;24.744;2023-08-12T01:17:07;3.87;;;2.70;;
8757;SDS011;4415;42.152;24.744;2023-08-12T01:19:37;3.10;;;2.90;;
8757;SDS011;4415;42.152;24.744;2023-08-12T01:22:03;3.33;;;2.70;;
8757;SDS011;4415;42.152;24.744;2023-08-12T01:24:36;3.53;;;2.60;;
8757;SDS011;4415;42.152;24.744;2023-08-12T01:27:06;2.97;;;2.70;;
8757;SDS011;4415;42.152;24.744;2023-08-12T01:29:32;2.70;;;2.50;;
8757;SDS011;4415;42.152;24.744;2023-08-12T01:32:01;2.70;;;2.60;;
8757;SDS011;4415;42.152;24.744;2023-08-12T01:34:52;3.07;;;2.80;;
8757;SDS011;4415;42.152;24.744;2023-08-12T01:37:29;3.00;;;2.80;;
8757;SDS011;4415;42.152;24.744;2023-08-12T01:39:56;4.17;;;2.90;;
8757;SDS011;4415;42.152;24.744;2023-08-12T01:42:25;3.07;;;2.87;;
8757;SDS011;4415;42.152;24.744;2023-08-12T01:44:50;2.90;;;2.73;;
8757;SDS011;4415;42.152;24.744;2023-08-12T01:47:16;3.00;;;2.80;;
8757;SDS011;4415;42.152;24.744;2023-08-12T01:49:42;2.90;;;2.80;;
8757;SDS011;4415;42.152;24.744;2023-08-12T01:52:07;3.47;;;3.17;;
8757;SDS011;4415;42.152;24.744;2023-08-12T01:54:33;3.30;;;3.10;;
8757;SDS011;4415;42.152;24.744;2023-08-12T01:57:02;3.23;;;3.03;;
8757;SDS011;4415;42.152;24.744;2023-08-12T01:59:30;3.17;;;2.90;;
8757;SDS011;4415;42.152;24.744;2023-08-12T02:02:01;3.17;;;2.87;;
8757;SDS011;4415;42.152;24.744;2023-08-12T02:04:27;3.20;;;3.00;;
8757;SDS011;4415;42.152;24.744;2023-08-12T02:06:53;2.77;;;2.67;;
8757;SDS011;4415;42.152;24.744;2023-08-12T02:09:18;3.20;;;2.90;;
8757;SDS011;4415;42.152;24.744;2023-08-12T02:11:43;3.70;;;3.20;;
8757;SDS011;4415;42.152;24.744;2023-08-12T02:14:08;3.73;;;3.43;;
8757;SDS011;4415;42.152;24.744;2023-08-12T02:16:34;2.93;;;2.73;;
8757;SDS011;4415;42.152;24.744;2023-08-12T02:18:59;3.20;;;3.00;;
8757;SDS011;4415;42.152;24.744;2023-08-12T02:21:24;3.30;;;3.00;;
8757;SDS011;4415;42.152;24.744;2023-08-12T02:23:50;3.20;;;3.00;;
8757;SDS011;4415;42.152;24.744;2023-08-12T02:26:15;3.13;;;3.03;;
8757;SDS011;4415;42.152;24.744;2023-08-12T02:28:41;3.03;;;2.90;;
8757;SDS011;4415;42.152;24.744;2023-08-12T02:31:06;3.47;;;3.17;;
8757;SDS011;4415;42.152;24.744;2023-08-12T02:33:32;2.93;;;2.83;;
8757;SDS011;4415;42.152;24.744;2023-08-12T02:35:57;3.40;;;3.20;;
8757;SDS011;4415;42.152;24.744;2023-08-12T02:38:22;3.17;;;2.97;;
8757;SDS011;4415;42.152;24.744;2023-08-12T02:40:48;3.67;;;2.97;;
8757;SDS011;4415;42.152;24.744;2023-08-12T02:43:14;3.53;;;3.23;;
8757;SDS011;4415;42.152;24.744;2023-08-12T02:45:40;3.57;;;3.27;;
8757;SDS011;4415;42.152;24.744;2023-08-12T02:48:05;3.00;;;2.80;;
8757;SDS011;4415;42.152;24.744;2023-08-12T02:50:31;3.00;;;2.80;;
8757;SDS011;4415;42.152;24.744;2023-08-12T02:52:56;3.30;;;3.10;;
8757;SDS011;4415;42.152;24.744;2023-08-12T02:55:22;3.80;;;3.50;;
8757;SDS011;4415;42.152;24.744;2023-08-12T02:57:47;3.00;;;2.80;;
8757;SDS011;4415;42.152;24.744;2023-08-12T03:00:13;4.07;;;2.70;;
8757;SDS011;4415;42.152;24.744;2023-08-12T03:02:41;2.90;;;2.70;;
8757;SDS011;4415;42.152;24.744;2023-08-12T03:05:08;3.43;;;3.13;;
8757;SDS011;4415;42.152;24.744;2023-08-12T03:07:33;3.20;;;3.00;;
8757;SDS011;4415;42.152;24.744;2023-08-12T03:09:58;3.23;;;3.03;;
8757;SDS011;4415;42.152;24.744;2023-08-12T03:12:23;3.83;;;3.07;;
8757;SDS011;4415;42.152;24.744;2023-08-12T03:14:49;3.17;;;2.87;;
8757;SDS011;4415;42.152;24.744;2023-08-12T03:17:14;2.60;;;2.50;;
8757;SDS011;4415;42.152;24.744;2023-08-12T03:19:39;5.30;;;3.10;;
8757;SDS011;4415;42.152;24.744;2023-08-12T03:22:05;2.90;;;2.70;;
8757;SDS011;4415;42.152;24.744;2023-08-12T03:24:30;3.10;;;2.80;;
8757;SDS011;4415;42.152;24.744;2023-08-12T03:26:56;3.70;;;3.07;;
8757;SDS011;4415;42.152;24.744;2023-08-12T03:29:21;3.43;;;3.20;;
8757;SDS011;4415;42.152;24.744;2023-08-12T03:31:46;3.23;;;2.80;;
8757;SDS011;4415;42.152;24.744;2023-08-12T03:34:12;5.00;;;2.97;;
8757;SDS011;4415;42.152;24.744;2023-08-12T03:36:37;3.13;;;2.93;;
8757;SDS011;4415;42.152;24.744;2023-08-12T03:39:02;3.40;;;3.10;;
8757;SDS011;4415;42.152;24.744;2023-08-12T03:41:28;3.17;;;3.07;;
8757;SDS011;4415;42.152;24.744;2023-08-12T03:43:54;3.73;;;3.03;;
8757;SDS011;4415;42.152;24.744;2023-08-12T03:46:19;3.50;;;2.90;;
8757;SDS011;4415;42.152;24.744;2023-08-12T03:48:44;6.03;;;3.30;;
8757;SDS011;4415;42.152;24.744;2023-08-12T03:51:10;3.30;;;3.03;;
8757;SDS011;4415;42.152;24.744;2023-08-12T03:53:35;3.03;;;2.83;;
8757;SDS011;4415;42.152;24.744;2023-08-12T03:56:00;3.70;;;3.33;;
8757;SDS011;4415;42.152;24.744;2023-08-12T03:58:26;11.33;;;3.30;;
8757;SDS011;4415;42.152;24.744;2023-08-12T04:00:51;3.57;;;3.27;;
8757;SDS011;4415;42.152;24.744;2023-08-12T04:03:16;4.23;;;3.43;;
8757;SDS011;4415;42.152;24.744;2023-08-12T04:05:48;3.57;;;3.37;;
8757;SDS011;4415;42.152;24.744;2023-08-12T04:08:18;3.50;;;3.17;;
8757;SDS011;4415;42.152;24.744;2023-08-12T04:10:44;4.27;;;2.93;;
8757;SDS011;4415;42.152;24.744;2023-08-12T04:13:10;3.97;;;3.67;;
8757;SDS011;4415;42.152;24.744;2023-08-12T04:15:36;3.40;;;3.10;;
8757;SDS011;4415;42.152;24.744;2023-08-12T04:18:01;3.50;;;3.20;;
8757;SDS011;4415;42.152;24.744;2023-08-12T04:20:26;3.63;;;3.30;;
8757;SDS011;4415;42.152;24.744;2023-08-12T04:22:51;4.17;;;3.00;;
8757;SDS011;4415;42.152;24.744;2023-08-12T04:25:17;7.63;;;3.30;;
8757;SDS011;4415;42.152;24.744;2023-08-12T04:27:43;3.00;;;2.80;;
8757;SDS011;4415;42.152;24.744;2023-08-12T04:30:08;3.37;;;3.07;;
8757;SDS011;4415;42.152;24.744;2023-08-12T04:32:34;3.60;;;3.30;;
8757;SDS011;4415;42.152;24.744;2023-08-12T04:34:59;3.80;;;3.50;;
8757;SDS011;4415;42.152;24.744;2023-08-12T04:37:24;3.30;;;3.00;;
8757;SDS011;4415;42.152;24.744;2023-08-12T04:39:51;3.33;;;3.03;;
8757;SDS011;4415;42.152;24.744;2023-08-12T04:42:16;4.80;;;3.30;;
8757;SDS011;4415;42.152;24.744;2023-08-12T04:44:41;3.60;;;3.30;;
8757;SDS011;4415;42.152;24.744;2023-08-12T04:47:07;3.67;;;3.43;;
8757;SDS011;4415;42.152;24.744;2023-08-12T04:49:32;3.40;;;3.20;;
8757;SDS011;4415;42.152;24.744;2023-08-12T04:51:57;4.13;;;3.70;;
8757;SDS011;4415;42.152;24.744;2023-08-12T04:54:23;6.23;;;3.90;;
8757;SDS011;4415;42.152;24.744;2023-08-12T04:56:49;3.87;;;3.47;;
8757;SDS011;4415;42.152;24.744;2023-08-12T04:59:14;4.43;;;3.90;;
8757;SDS011;4415;42.152;24.744;2023-08-12T05:01:40;7.70;;;4.00;;
8757;SDS011;4415;42.152;24.744;2023-08-12T05:04:05;3.67;;;3.37;;
8757;SDS011;4415;42.152;24.744;2023-08-12T05:06:31;4.00;;;3.53;;
8757;SDS011;4415;42.152;24.744;2023-08-12T05:08:56;4.90;;;3.60;;
8757;SDS011;4415;42.152;24.744;2023-08-12T05:11:21;4.93;;;3.70;;
8757;SDS011;4415;42.152;24.744;2023-08-12T05:13:47;4.80;;;3.73;;
8757;SDS011;4415;42.152;24.744;2023-08-12T05:16:12;4.40;;;4.00;;
8757;SDS011;4415;42.152;24.744;2023-08-12T05:18:37;4.43;;;3.90;;
8757;SDS011;4415;42.152;24.744;2023-08-12T05:21:03;5.00;;;3.90;;
8757;SDS011;4415;42.152;24.744;2023-08-12T05:23:28;4.97;;;3.73;;
8757;SDS011;4415;42.152;24.744;2023-08-12T05:25:53;5.37;;;4.20;;
8757;SDS011;4415;42.152;24.744;2023-08-12T05:28:19;9.03;;;4.00;;
8757;SDS011;4415;42.152;24.744;2023-08-12T05:30:44;5.90;;;4.07;;
8757;SDS011;4415;42.152;24.744;2023-08-12T05:33:10;4.20;;;3.90;;
8757;SDS011;4415;42.152;24.744;2023-08-12T05:35:35;7.40;;;3.60;;
8757;SDS011;4415;42.152;24.744;2023-08-12T05:38:01;5.90;;;3.67;;
8757;SDS011;4415;42.152;24.744;2023-08-12T05:40:27;6.53;;;4.30;;
8757;SDS011;4415;42.152;24.744;2023-08-12T05:42:52;8.03;;;4.03;;
8757;SDS011;4415;42.152;24.744;2023-08-12T05:45:18;5.80;;;3.60;;
8757;SDS011;4415;42.152;24.744;2023-08-12T05:47:43;4.30;;;3.97;;
8757;SDS011;4415;42.152;24.744;2023-08-12T05:50:09;3.87;;;3.50;;
8757;SDS011;4415;42.152;24.744;2023-08-12T05:52:34;3.97;;;3.67;;
8757;SDS011;4415;42.152;24.744;2023-08-12T05:55:00;6.43;;;3.90;;
8757;SDS011;4415;42.152;24.744;2023-08-12T05:57:25;3.80;;;3.50;;
8757;SDS011;4415;42.152;24.744;2023-08-12T05:59:50;3.97;;;3.70;;
8757;SDS011;4415;42.152;24.744;2023-08-12T06:02:16;4.37;;;3.90;;
8757;SDS011;4415;42.152;24.744;2023-08-12T06:04:42;4.20;;;3.73;;
8757;SDS011;4415;42.152;24.744;2023-08-12T06:07:07;4.17;;;3.90;;
8757;SDS011;4415;42.152;24.744;2023-08-12T06:09:32;4.73;;;3.47;;
8757;SDS011;4415;42.152;24.744;2023-08-12T06:11:58;4.43;;;3.43;;
8757;SDS011;4415;42.152;24.744;2023-08-12T06:14:23;10.03;;;3.97;;
8757;SDS011;4415;42.152;24.744;2023-08-12T06:16:48;3.97;;;3.60;;
8757;SDS011;4415;42.152;24.744;2023-08-12T06:19:14;6.23;;;3.93;;
8757;SDS011;4415;42.152;24.744;2023-08-12T06:21:39;3.80;;;3.50;;
8757;SDS011;4415;42.152;24.744;2023-08-12T06:24:05;8.70;;;3.67;;
8757;SDS011;4415;42.152;24.744;2023-08-12T06:26:30;7.00;;;3.97;;
8757;SDS011;4415;42.152;24.744;2023-08-12T06:28:55;4.97;;;4.00;;
8757;SDS011;4415;42.152;24.744;2023-08-12T06:31:21;6.18;;;3.88;;
8757;SDS011;4415;42.152;24.744;2023-08-12T06:33:46;8.40;;;3.77;;
8757;SDS011;4415;42.152;24.744;2023-08-12T06:36:11;5.68;;;3.63;;
8757;SDS011;4415;42.152;24.744;2023-08-12T06:38:37;11.73;;;4.07;;
8757;SDS011;4415;42.152;24.744;2023-08-12T06:41:02;6.78;;;3.40;;
8757;SDS011;4415;42.152;24.744;2023-08-12T06:43:28;8.85;;;3.53;;
8757;SDS011;4415;42.152;24.744;2023-08-12T06:45:53;7.75;;;3.00;;
8757;SDS011;4415;42.152;24.744;2023-08-12T06:48:18;9.70;;;3.20;;
8757;SDS011;4415;42.152;24.744;2023-08-12T06:50:44;8.25;;;3.60;;
8757;SDS011;4415;42.152;24.744;2023-08-12T06:53:09;4.85;;;3.20;;
8757;SDS011;4415;42.152;24.744;2023-08-12T06:55:34;7.93;;;3.42;;
8757;SDS011;4415;42.152;24.744;2023-08-12T06:58:00;5.68;;;3.42;;
8757;SDS011;4415;42.152;24.744;2023-08-12T07:00:26;4.93;;;3.28;;
8757;SDS011;4415;42.152;24.744;2023-08-12T07:02:51;3.88;;;3.40;;
8757;SDS011;4415;42.152;24.744;2023-08-12T07:05:17;4.47;;;3.40;;
8757;SDS011;4415;42.152;24.744;2023-08-12T07:07:42;5.03;;;3.25;;
8757;SDS011;4415;42.152;24.744;2023-08-12T07:10:07;4.82;;;3.10;;
8757;SDS011;4415;42.152;24.744;2023-08-12T07:12:33;3.20;;;3.00;;
8757;SDS011;4415;42.152;24.744;2023-08-12T07:14:59;3.33;;;3.08;;
8757;SDS011;4415;42.152;24.744;2023-08-12T07:17:24;3.20;;;3.00;;
8757;SDS011;4415;42.152;24.744;2023-08-12T07:19:50;3.22;;;3.03;;
8757;SDS011;4415;42.152;24.744;2023-08-12T07:22:15;3.22;;;2.85;;
8757;SDS011;4415;42.152;24.744;2023-08-12T07:24:44;4.43;;;3.03;;
8757;SDS011;4415;42.152;24.744;2023-08-12T07:27:09;4.53;;;3.20;;
8757;SDS011;4415;42.152;24.744;2023-08-12T07:29:35;4.25;;;2.88;;
8757;SDS011;4415;42.152;24.744;2023-08-12T07:32:00;4.25;;;3.15;;
8757;SDS011;4415;42.152;24.744;2023-08-12T07:34:26;3.30;;;3.10;;
8757;SDS011;4415;42.152;24.744;2023-08-12T07:36:51;3.60;;;3.28;;
8757;SDS011;4415;42.152;24.744;2023-08-12T07:39:16;3.30;;;3.00;;
8757;SDS011;4415;42.152;24.744;2023-08-12T07:41:42;5.43;;;3.45;;
8757;SDS011;4415;42.152;24.744;2023-08-12T07:44:07;3.38;;;3.10;;
8757;SDS011;4415;42.152;24.744;2023-08-12T07:46:33;3.53;;;3.22;;
8757;SDS011;4415;42.152;24.744;2023-08-12T07:48:58;4.13;;;3.25;;
8757;SDS011;4415;42.152;24.744;2023-08-12T07:51:24;3.88;;;2.83;;
8757;SDS011;4415;42.152;24.744;2023-08-12T07:53:50;4.07;;;3.15;;
8757;SDS011;4415;42.152;24.744;2023-08-12T07:56:15;3.05;;;2.78;;
8757;SDS011;4415;42.152;24.744;2023-08-12T07:58:40;5.03;;;3.33;;
8757;SDS011;4415;42.152;24.744;2023-08-12T08:01:06;6.65;;;3.20;;
8757;SDS011;4415;42.152;24.744;2023-08-12T08:03:33;3.58;;;3.28;;
8757;SDS011;4415;42.152;24.744;2023-08-12T08:05:58;4.47;;;2.90;;
8757;SDS011;4415;42.152;24.744;2023-08-12T08:08:24;5.82;;;3.35;;
8757;SDS011;4415;42.152;24.744;2023-08-12T08:10:49;3.50;;;3.20;;
8757;SDS011;4415;42.152;24.744;2023-08-12T08:13:15;4.75;;;3.00;;
8757;SDS011;4415;42.152;24.744;2023-08-12T08:15:40;3.80;;;3.50;;
8757;SDS011;4415;42.152;24.744;2023-08-12T08:18:05;4.00;;;3.20;;
8757;SDS011;4415;42.152;24.744;2023-08-12T08:20:31;4.03;;;3.50;;
8757;SDS011;4415;42.152;24.744;2023-08-12T08:22:56;3.28;;;2.97;;
8757;SDS011;4415;42.152;24.744;2023-08-12T08:25:21;4.43;;;3.00;;
8757;SDS011;4415;42.152;24.744;2023-08-12T08:27:47;3.88;;;2.85;;
8757;SDS011;4415;42.152;24.744;2023-08-12T08:30:13;3.95;;;3.20;;
8757;SDS011;4415;42.152;24.744;2023-08-12T08:32:38;2.70;;;2.60;;
8757;SDS011;4415;42.152;24.744;2023-08-12T08:35:04;3.25;;;2.60;;
8757;SDS011;4415;42.152;24.744;2023-08-12T08:37:29;2.85;;;2.65;;
8757;SDS011;4415;42.152;24.744;2023-08-12T08:39:55;4.18;;;2.88;;
8757;SDS011;4415;42.152;24.744;2023-08-12T08:42:21;4.35;;;2.90;;
8757;SDS011;4415;42.152;24.744;2023-08-12T08:44:49;2.92;;;2.83;;
8757;SDS011;4415;42.152;24.744;2023-08-12T08:47:19;3.22;;;2.88;;
8757;SDS011;4415;42.152;24.744;2023-08-12T08:49:56;3.10;;;2.80;;
8757;SDS011;4415;42.152;24.744;2023-08-12T08:52:25;2.97;;;2.67;;
8757;SDS011;4415;42.152;24.744;2023-08-12T08:54:51;2.83;;;2.70;;
8757;SDS011;4415;42.152;24.744;2023-08-12T08:57:17;3.05;;;2.80;;
8757;SDS011;4415;42.152;24.744;2023-08-12T08:59:44;3.40;;;3.20;;
8757;SDS011;4415;42.152;24.744;2023-08-12T09:02:19;3.03;;;2.83;;
8757;SDS011;4415;42.152;24.744;2023-08-12T09:04:46;3.08;;;2.88;;
8757;SDS011;4415;42.152;24.744;2023-08-12T09:07:12;2.67;;;2.47;;
8757;SDS011;4415;42.152;24.744;2023-08-12T09:09:45;4.05;;;2.97;;
8757;SDS011;4415;42.152;24.744;2023-08-12T09:12:14;3.53;;;2.78;;
8757;SDS011;4415;42.152;24.744;2023-08-12T09:14:41;2.95;;;2.85;;
8757;SDS011;4415;42.152;24.744;2023-08-12T09:17:07;2.50;;;2.30;;
8757;SDS011;4415;42.152;24.744;2023-08-12T09:19:33;2.90;;;2.70;;
8757;SDS011;4415;42.152;24.744;2023-08-12T09:21:58;3.45;;;2.60;;
8757;SDS011;4415;42.152;24.744;2023-08-12T09:24:24;2.63;;;2.47;;
8757;SDS011;4415;42.152;24.744;2023-08-12T09:26:54;2.53;;;2.40;;
8757;SDS011;4415;42.152;24.744;2023-08-12T09:29:30;3.58;;;2.90;;
8757;SDS011;4415;42.152;24.744;2023-08-12T09:32:08;2.90;;;2.70;;
8757;SDS011;4415;42.152;24.744;2023-08-12T09:34:35;3.95;;;3.50;;
8757;SDS011;4415;42.152;24.744;2023-08-12T09:37:01;3.17;;;2.97;;
8757;SDS011;4415;42.152;24.744;2023-08-12T09:39:28;3.10;;;3.00;;
8757;SDS011;4415;42.152;24.744;2023-08-12T09:41:54;3.35;;;3.15;;
8757;SDS011;4415;42.152;24.744;2023-08-12T09:44:20;3.03;;;2.83;;
8757;SDS011;4415;42.152;24.744;2023-08-12T09:46:47;2.97;;;2.78;;
8757;SDS011;4415;42.152;24.744;2023-08-12T09:49:12;7.03;;;3.50;;
8757;SDS011;4415;42.152;24.744;2023-08-12T09:51:38;2.95;;;2.75;;
8757;SDS011;4415;42.152;24.744;2023-08-12T09:54:08;2.40;;;2.30;;
8757;SDS011;4415;42.152;24.744;2023-08-12T09:56:35;2.88;;;2.67;;
8757;SDS011;4415;42.152;24.744;2023-08-12T09:59:02;2.90;;;2.70;;
8757;SDS011;4415;42.152;24.744;2023-08-12T10:01:32;2.67;;;2.58;;
8757;SDS011;4415;42.152;24.744;2023-08-12T10:03:58;2.40;;;2.30;;
8757;SDS011;4415;42.152;24.744;2023-08-12T10:06:23;2.47;;;2.38;;
8757;SDS011;4415;42.152;24.744;2023-08-12T10:08:49;2.70;;;2.50;;
8757;SDS011;4415;42.152;24.744;2023-08-12T10:11:15;3.30;;;2.95;;
8757;SDS011;4415;42.152;24.744;2023-08-12T10:13:41;2.72;;;2.63;;
8757;SDS011;4415;42.152;24.744;2023-08-12T10:16:07;2.60;;;2.50;;
8757;SDS011;4415;42.152;24.744;2023-08-12T10:18:34;5.05;;;4.65;;
8757;SDS011;4415;42.152;24.744;2023-08-12T10:21:01;3.50;;;2.88;;
8757;SDS011;4415;42.152;24.744;2023-08-12T10:23:27;2.60;;;2.40;;
8757;SDS011;4415;42.152;24.744;2023-08-12T10:25:53;2.85;;;2.75;;
8757;SDS011;4415;42.152;24.744;2023-08-12T10:28:20;3.20;;;2.75;;
8757;SDS011;4415;42.152;24.744;2023-08-12T10:30:46;2.65;;;2.45;;
8757;SDS011;4415;42.152;24.744;2023-08-12T10:33:14;2.65;;;2.53;;
8757;SDS011;4415;42.152;24.744;2023-08-12T10:35:44;2.60;;;2.50;;
8757;SDS011;4415;42.152;24.744;2023-08-12T10:38:13;2.92;;;2.72;;
8757;SDS011;4415;42.152;24.744;2023-08-12T10:40:41;3.30;;;3.10;;
8757;SDS011;4415;42.152;24.744;2023-08-12T10:43:07;3.35;;;3.15;;
8757;SDS011;4415;42.152;24.744;2023-08-12T10:45:43;3.00;;;2.80;;
8757;SDS011;4415;42.152;24.744;2023-08-12T10:48:16;3.03;;;2.78;;
8757;SDS011;4415;42.152;24.744;2023-08-12T10:50:44;2.53;;;2.38;;
8757;SDS011;4415;42.152;24.744;2023-08-12T10:53:21;2.75;;;2.55;;
8757;SDS011;4415;42.152;24.744;2023-08-12T10:55:55;4.20;;;2.75;;
8757;SDS011;4415;42.152;24.744;2023-08-12T10:58:29;4.00;;;3.58;;
8757;SDS011;4415;42.152;24.744;2023-08-12T11:00:59;3.47;;;3.17;;
8757;SDS011;4415;42.152;24.744;2023-08-12T11:03:25;3.10;;;2.90;;
8757;SDS011;4415;42.152;24.744;2023-08-12T11:05:50;3.88;;;2.88;;
8757;SDS011;4415;42.152;24.744;2023-08-12T11:08:23;2.75;;;2.65;;
8757;SDS011;4415;42.152;24.744;2023-08-12T11:10:51;3.65;;;2.55;;
8757;SDS011;4415;42.152;24.744;2023-08-12T11:13:18;5.57;;;2.83;;
8757;SDS011;4415;42.152;24.744;2023-08-12T11:15:44;3.20;;;2.90;;
8757;SDS011;4415;42.152;24.744;2023-08-12T11:18:15;2.85;;;2.75;;
8757;SDS011;4415;42.152;24.744;2023-08-12T11:20:42;2.90;;;2.80;;
8757;SDS011;4415;42.152;24.744;2023-08-12T11:23:08;3.50;;;3.30;;
8757;SDS011;4415;42.152;24.744;2023-08-12T11:25:35;3.20;;;3.00;;
8757;SDS011;4415;42.152;24.744;2023-08-12T11:28:03;3.40;;;3.20;;
8757;SDS011;4415;42.152;24.744;2023-08-12T11:30:29;2.80;;;2.70;;
8757;SDS011;4415;42.152;24.744;2023-08-12T11:32:54;3.00;;;2.80;;
8757;SDS011;4415;42.152;24.744;2023-08-12T11:35:21;3.60;;;3.30;;
8757;SDS011;4415;42.152;24.744;2023-08-12T11:37:49;4.05;;;3.22;;
8757;SDS011;4415;42.152;24.744;2023-08-12T11:40:18;3.33;;;3.13;;
8757;SDS011;4415;42.152;24.744;2023-08-12T11:42:44;3.15;;;2.92;;
8757;SDS011;4415;42.152;24.744;2023-08-12T11:45:15;3.13;;;2.92;;
8757;SDS011;4415;42.152;24.744;2023-08-12T11:47:42;2.80;;;2.60;;
8757;SDS011;4415;42.152;24.744;2023-08-12T11:50:09;3.20;;;2.90;;
8757;SDS011;4415;42.152;24.744;2023-08-12T11:52:35;3.45;;;2.80;;
8757;SDS011;4415;42.152;24.744;2023-08-12T11:55:02;2.70;;;2.60;;
8757;SDS011;4415;42.152;24.744;2023-08-12T11:57:27;3.03;;;2.92;;
8757;SDS011;4415;42.152;24.744;2023-08-12T12:00:03;2.78;;;2.67;;
8757;SDS011;4415;42.152;24.744;2023-08-12T12:02:37;2.80;;;2.70;;
8757;SDS011;4415;42.152;24.744;2023-08-12T12:05:08;3.20;;;3.00;;
8757;SDS011;4415;42.152;24.744;2023-08-12T12:07:35;3.65;;;2.80;;
8757;SDS011;4415;42.152;24.744;2023-08-12T12:10:02;3.65;;;2.90;;
8757;SDS011;4415;42.152;24.744;2023-08-12T12:12:27;3.60;;;2.70;;
8757;SDS011;4415;42.152;24.744;2023-08-12T12:14:53;3.10;;;2.90;;
8757;SDS011;4415;42.152;24.744;2023-08-12T12:17:21;2.85;;;2.65;;
8757;SDS011;4415;42.152;24.744;2023-08-12T12:19:51;2.72;;;2.63;;
8757;SDS011;4415;42.152;24.744;2023-08-12T12:22:18;2.83;;;2.65;;
8757;SDS011;4415;42.152;24.744;2023-08-12T12:24:44;3.08;;;2.88;;
8757;SDS011;4415;42.152;24.744;2023-08-12T12:27:13;2.88;;;2.78;;
8757;SDS011;4415;42.152;24.744;2023-08-12T12:29:39;3.25;;;2.95;;
8757;SDS011;4415;42.152;24.744;2023-08-12T12:32:05;3.03;;;2.88;;
8757;SDS011;4415;42.152;24.744;2023-08-12T12:34:30;4.25;;;3.15;;
8757;SDS011;4415;42.152;24.744;2023-08-12T12:36:56;2.97;;;2.78;;
8757;SDS011;4415;42.152;24.744;2023-08-12T12:39:21;2.70;;;2.60;;
8757;SDS011;4415;42.152;24.744;2023-08-12T12:41:48;2.80;;;2.70;;
8757;SDS011;4415;42.152;24.744;2023-08-12T12:44:13;2.75;;;2.63;;
8757;SDS011;4415;42.152;24.744;2023-08-12T12:46:38;2.88;;;2.67;;
8757;SDS011;4415;42.152;24.744;2023-08-12T12:49:04;2.60;;;2.50;;
8757;SDS011;4415;42.152;24.744;2023-08-12T12:51:29;2.58;;;2.42;;
8757;SDS011;4415;42.152;24.744;2023-08-12T12:53:55;3.10;;;2.88;;
8757;SDS011;4415;42.152;24.744;2023-08-12T12:56:20;2.80;;;2.60;;
8757;SDS011;4415;42.152;24.744;2023-08-12T12:58:45;4.30;;;4.00;;
8757;SDS011;4415;42.152;24.744;2023-08-12T13:01:11;7.30;;;6.60;;
8757;SDS011;4415;42.152;24.744;2023-08-12T13:03:36;3.72;;;3.53;;
8757;SDS011;4415;42.152;24.744;2023-08-12T13:06:02;4.00;;;3.70;;
8757;SDS011;4415;42.152;24.744;2023-08-12T13:08:28;3.47;;;3.28;;
8757;SDS011;4415;42.152;24.744;2023-08-12T13:10:55;3.50;;;3.00;;
8757;SDS011;4415;42.152;24.744;2023-08-12T13:13:20;3.95;;;3.67;;
8757;SDS011;4415;42.152;24.744;2023-08-12T13:15:45;8.15;;;7.38;;
8757;SDS011;4415;42.152;24.744;2023-08-12T13:18:11;7.03;;;6.28;;
8757;SDS011;4415;42.152;24.744;2023-08-12T13:20:37;4.53;;;4.22;;
8757;SDS011;4415;42.152;24.744;2023-08-12T13:23:03;3.78;;;3.50;;
8757;SDS011;4415;42.152;24.744;2023-08-12T13:25:30;4.07;;;3.78;;
8757;SDS011;4415;42.152;24.744;2023-08-12T13:27:57;3.65;;;3.38;;
8757;SDS011;4415;42.152;24.744;2023-08-12T13:30:23;3.58;;;3.35;;
8757;SDS011;4415;42.152;24.744;2023-08-12T13:32:48;2.65;;;2.55;;
8757;SDS011;4415;42.152;24.744;2023-08-12T13:35:14;3.40;;;3.20;;
8757;SDS011;4415;42.152;24.744;2023-08-12T13:37:39;2.70;;;2.60;;
8757;SDS011;4415;42.152;24.744;2023-08-12T13:40:05;3.40;;;3.03;;
8757;SDS011;4415;42.152;24.744;2023-08-12T13:42:31;2.70;;;2.60;;
8757;SDS011;4415;42.152;24.744;2023-08-12T13:44:56;2.40;;;2.30;;
8757;SDS011;4415;42.152;24.744;2023-08-12T13:47:21;2.80;;;2.60;;
8757;SDS011;4415;42.152;24.744;2023-08-12T13:49:47;2.60;;;2.50;;
8757;SDS011;4415;42.152;24.744;2023-08-12T13:52:12;2.35;;;2.15;;
8757;SDS011;4415;42.152;24.744;2023-08-12T13:54:37;2.90;;;2.58;;
8757;SDS011;4415;42.152;24.744;2023-08-12T13:57:03;3.70;;;3.50;;
8757;SDS011;4415;42.152;24.744;2023-08-12T13:59:29;3.15;;;2.95;;
8757;SDS011;4415;42.152;24.744;2023-08-12T14:01:55;2.28;;;2.17;;
8757;SDS011;4415;42.152;24.744;2023-08-12T14:04:20;3.08;;;2.88;;
8757;SDS011;4415;42.152;24.744;2023-08-12T14:06:45;4.40;;;2.80;;
8757;SDS011;4415;42.152;24.744;2023-08-12T14:09:11;3.22;;;2.85;;
8757;SDS011;4415;42.152;24.744;2023-08-12T14:11:38;2.42;;;2.33;;
8757;SDS011;4415;42.152;24.744;2023-08-12T14:14:04;2.60;;;2.47;;
8757;SDS011;4415;42.152;24.744;2023-08-12T14:16:30;2.58;;;2.47;;
8757;SDS011;4415;42.152;24.744;2023-08-12T14:18:55;2.42;;;2.22;;
8757;SDS011;4415;42.152;24.744;2023-08-12T14:21:20;2.60;;;2.40;;
8757;SDS011;4415;42.152;24.744;2023-08-12T14:23:46;2.75;;;2.47;;
8757;SDS011;4415;42.152;24.744;2023-08-12T14:26:11;2.55;;;2.45;;
8757;SDS011;4415;42.152;24.744;2023-08-12T14:28:37;2.60;;;2.40;;
8757;SDS011;4415;42.152;24.744;2023-08-12T14:31:02;2.40;;;2.30;;
8757;SDS011;4415;42.152;24.744;2023-08-12T14:33:28;2.90;;;2.70;;
8757;SDS011;4415;42.152;24.744;2023-08-12T14:35:57;2.53;;;2.42;;
8757;SDS011;4415;42.152;24.744;2023-08-12T14:38:23;2.70;;;2.50;;
8757;SDS011;4415;42.152;24.744;2023-08-12T14:40:48;2.40;;;2.30;;
8757;SDS011;4415;42.152;24.744;2023-08-12T14:43:14;3.10;;;2.90;;
8757;SDS011;4415;42.152;24.744;2023-08-12T14:45:39;2.25;;;2.15;;
8757;SDS011;4415;42.152;24.744;2023-08-12T14:48:05;2.38;;;2.20;;
8757;SDS011;4415;42.152;24.744;2023-08-12T14:50:30;2.30;;;2.20;;
8757;SDS011;4415;42.152;24.744;2023-08-12T14:52:56;2.35;;;2.25;;
8757;SDS011;4415;42.152;24.744;2023-08-12T14:55:21;3.03;;;2.20;;
8757;SDS011;4415;42.152;24.744;2023-08-12T14:57:46;2.58;;;2.47;;
8757;SDS011;4415;42.152;24.744;2023-08-12T15:00:12;2.60;;;2.50;;